createdAt,value
2023-04-17T00:00:17.742Z,56.8167
2023-04-17T00:01:20.335Z,56.8097
2023-04-17T00:02:23.028Z,56.8178
2023-04-17T00:03:25.557Z,56.8264
2023-04-17T00:04:28.156Z,56.8339
2023-04-17T00:05:30.696Z,56.8340
2023-04-17T00:06:33.210Z,56.8382
2023-04-17T00:07:35.824Z,56.8425
2023-04-17T00:08:38.655Z,56.8435
2023-04-17T00:09:40.995Z,56.8509
2023-04-17T00:10:44.442Z,56.8707
2023-04-17T00:11:46.157Z,56.9025
2023-04-17T00:12:48.707Z,56.8964
2023-04-17T00:13:51.322Z,56.9027
2023-04-17T00:14:54.078Z,56.8927
2023-04-17T00:15:56.595Z,56.8878
2023-04-17T00:16:59.044Z,56.8732
2023-04-17T00:18:01.777Z,56.8866
2023-04-17T00:19:04.204Z,56.9009
2023-04-17T00:20:07.122Z,56.9061
2023-04-17T00:21:09.375Z,56.9172
2023-04-17T00:22:11.980Z,56.9179
2023-04-17T00:23:14.542Z,56.9198
2023-04-17T00:24:17.148Z,56.9192
2023-04-17T00:25:19.712Z,56.9024
2023-04-17T00:26:22.304Z,56.8978
2023-04-17T00:27:24.859Z,56.9039
2023-04-17T00:28:27.474Z,56.9151
2023-04-17T00:29:30.029Z,56.9383
2023-04-17T00:30:32.642Z,56.9343
2023-04-17T00:31:35.226Z,56.9208
2023-04-17T00:32:37.890Z,56.9025
2023-04-17T00:33:40.566Z,56.9359
2023-04-17T00:34:42.974Z,56.9093
2023-04-17T00:35:45.532Z,56.9178
2023-04-17T00:36:48.136Z,56.9270
2023-04-17T00:37:50.720Z,56.9426
2023-04-17T00:38:53.311Z,56.9270
2023-04-17T00:39:55.865Z,56.8996
2023-04-17T00:40:58.469Z,56.9015
2023-04-17T00:42:01.319Z,56.9201
2023-04-17T00:43:03.613Z,56.9266
2023-04-17T00:44:06.365Z,56.9259
2023-04-17T00:45:08.780Z,56.9496
2023-04-17T00:46:11.439Z,56.9504
2023-04-17T00:47:13.956Z,56.9352
2023-04-17T00:48:16.576Z,56.9328
2023-04-17T00:49:19.127Z,56.9377
2023-04-17T00:50:21.747Z,56.9371
2023-04-17T00:51:24.301Z,56.9348
2023-04-17T00:52:27.109Z,56.9504
2023-04-17T00:53:29.463Z,56.9571
2023-04-17T00:54:32.090Z,56.9533
2023-04-17T00:55:34.645Z,56.9487
2023-04-17T00:56:37.246Z,56.9634
2023-04-17T00:57:39.812Z,56.9492
2023-04-17T00:58:42.406Z,56.9354
2023-04-17T00:59:44.960Z,56.9310
2023-04-17T01:00:47.606Z,56.9599
2023-04-17T01:01:50.208Z,56.9527
2023-04-17T01:02:52.829Z,56.9567
2023-04-17T01:03:55.764Z,56.9796
2023-04-17T01:04:57.987Z,57.0034
2023-04-17T01:06:00.538Z,57.0271
2023-04-17T01:07:03.173Z,56.9883
2023-04-17T01:08:05.703Z,57.0177
2023-04-17T01:09:08.306Z,57.0004
2023-04-17T01:10:10.862Z,56.9827
2023-04-17T01:11:13.469Z,57.0007
2023-04-17T01:12:16.023Z,56.9879
2023-04-17T01:13:18.664Z,56.9609
2023-04-17T01:14:21.209Z,56.9780
2023-04-17T01:15:23.821Z,56.9825
2023-04-17T01:16:26.380Z,56.9904
2023-04-17T01:17:28.987Z,57.0023
2023-04-17T01:18:31.527Z,57.0057
2023-04-17T01:19:34.350Z,56.9851
2023-04-17T01:20:37.006Z,56.9915
2023-04-17T01:21:39.308Z,56.9909
2023-04-17T01:22:41.854Z,57.0264
2023-04-17T01:23:44.470Z,57.0240
2023-04-17T01:24:47.039Z,57.0171
2023-04-17T01:25:49.637Z,57.0240
2023-04-17T01:26:52.202Z,57.0283
2023-04-17T01:27:54.795Z,57.0332
2023-04-17T01:28:57.409Z,57.0206
2023-04-17T01:29:59.967Z,57.0301
2023-04-17T01:31:02.566Z,57.0695
2023-04-17T01:32:05.134Z,57.0635
2023-04-17T01:33:07.707Z,57.0774
2023-04-17T01:34:10.306Z,57.0572
2023-04-17T01:35:12.874Z,57.0290
2023-04-17T01:36:15.485Z,57.0563
2023-04-17T01:37:18.041Z,57.0402
2023-04-17T01:38:20.664Z,57.0436
2023-04-17T01:39:23.508Z,57.0686
2023-04-17T01:40:25.835Z,57.0679
2023-04-17T01:41:28.401Z,57.0784
2023-04-17T01:42:30.990Z,57.0734
2023-04-17T01:43:33.569Z,57.0664
2023-04-17T01:44:36.164Z,57.0950
2023-04-17T01:45:38.760Z,57.0958
2023-04-17T01:46:41.409Z,57.0719
2023-04-17T01:47:43.926Z,57.0612
2023-04-17T01:48:46.628Z,57.0656
2023-04-17T01:49:49.069Z,57.0757
2023-04-17T01:50:51.681Z,57.0996
2023-04-17T01:51:54.243Z,57.1113
2023-04-17T01:52:56.847Z,57.0875
2023-04-17T01:53:59.407Z,57.0940
2023-04-17T01:55:02.020Z,57.0763
2023-04-17T01:56:04.586Z,57.0703
2023-04-17T01:57:07.202Z,57.0810
2023-04-17T01:58:09.759Z,57.0781
2023-04-17T01:59:12.504Z,57.0928
2023-04-17T02:00:14.928Z,57.0638
2023-04-17T02:01:17.559Z,57.0690
2023-04-17T02:02:20.332Z,57.0604
2023-04-17T02:03:22.814Z,57.0755
2023-04-17T02:04:25.329Z,57.0828
2023-04-17T02:05:27.883Z,57.0823
2023-04-17T02:06:30.446Z,57.0652
2023-04-17T02:07:33.058Z,57.0660
2023-04-17T02:08:35.617Z,57.0868
2023-04-17T02:09:38.235Z,57.1346
2023-04-17T02:10:40.793Z,57.1027
2023-04-17T02:11:43.404Z,57.0949
2023-04-17T02:12:45.966Z,57.0958
2023-04-17T02:13:48.576Z,57.1231
2023-04-17T02:14:51.137Z,57.1136
2023-04-17T02:15:53.771Z,57.1167
2023-04-17T02:16:56.321Z,57.1347
2023-04-17T02:17:59.018Z,57.1322
2023-04-17T02:19:01.488Z,57.1444
2023-04-17T02:20:04.102Z,57.1453
2023-04-17T02:21:06.661Z,57.1319
2023-04-17T02:22:09.266Z,57.1211
2023-04-17T02:23:11.843Z,57.1246
2023-04-17T02:24:14.434Z,57.1155
2023-04-17T02:25:17.295Z,57.1232
2023-04-17T02:26:19.613Z,57.1361
2023-04-17T02:27:22.163Z,57.1513
2023-04-17T02:28:24.783Z,57.1476
2023-04-17T02:29:27.355Z,57.1408
2023-04-17T02:30:29.942Z,57.1448
2023-04-17T02:31:32.546Z,57.1429
2023-04-17T02:32:35.139Z,57.1318
2023-04-17T02:33:37.685Z,57.1250
2023-04-17T02:34:40.273Z,57.1310
2023-04-17T02:35:42.829Z,57.1399
2023-04-17T02:36:45.453Z,57.1418
2023-04-17T02:37:48.017Z,57.1378
2023-04-17T02:38:50.612Z,57.1444
2023-04-17T02:39:53.183Z,57.1378
2023-04-17T02:40:55.778Z,57.1376
2023-04-17T02:41:58.332Z,57.1231
2023-04-17T02:43:00.952Z,57.1367
2023-04-17T02:44:03.513Z,57.1395
2023-04-17T02:45:06.121Z,57.1602
2023-04-17T02:46:08.825Z,57.1511
2023-04-17T02:47:11.289Z,57.1740
2023-04-17T02:48:13.855Z,57.1778
2023-04-17T02:49:16.449Z,57.1562
2023-04-17T02:50:19.017Z,57.1592
2023-04-17T02:51:21.623Z,57.1929
2023-04-17T02:52:24.237Z,57.1728
2023-04-17T02:53:26.783Z,57.1670
2023-04-17T02:54:29.340Z,57.1826
2023-04-17T02:55:31.946Z,57.1819
2023-04-17T02:56:34.517Z,57.2002
2023-04-17T02:57:37.113Z,57.1977
2023-04-17T02:58:39.711Z,57.1976
2023-04-17T02:59:42.292Z,57.2001
2023-04-17T03:00:44.853Z,57.2096
2023-04-17T03:01:47.504Z,57.1955
2023-04-17T03:02:50.155Z,57.1796
2023-04-17T03:03:52.911Z,57.1996
2023-04-17T03:04:55.170Z,57.1804
2023-04-17T03:05:57.780Z,57.1773
2023-04-17T03:07:00.337Z,57.1709
2023-04-17T03:08:02.943Z,57.1873
2023-04-17T03:09:05.518Z,57.1917
2023-04-17T03:10:08.118Z,57.2042
2023-04-17T03:11:10.670Z,57.1970
2023-04-17T03:12:13.285Z,57.2081
2023-04-17T03:13:15.840Z,57.2099
2023-04-17T03:14:18.484Z,57.2063
2023-04-17T03:15:21.032Z,57.2023
2023-04-17T03:16:23.910Z,57.2084
2023-04-17T03:17:26.201Z,57.2067
2023-04-17T03:18:28.795Z,57.2076
2023-04-17T03:19:31.338Z,57.2146
2023-04-17T03:20:33.956Z,57.2184
2023-04-17T03:21:36.505Z,57.2156
2023-04-17T03:22:39.109Z,57.2357
2023-04-17T03:23:41.673Z,57.2083
2023-04-17T03:24:44.525Z,57.2252
2023-04-17T03:25:46.849Z,57.2228
2023-04-17T03:26:49.480Z,57.2183
2023-04-17T03:27:52.014Z,57.2244
2023-04-17T03:28:54.618Z,57.2512
2023-04-17T03:29:57.199Z,57.2382
2023-04-17T03:30:59.788Z,57.2305
2023-04-17T03:32:02.455Z,57.2290
2023-04-17T03:33:05.009Z,57.2296
2023-04-17T03:34:07.514Z,57.2181
2023-04-17T03:35:10.120Z,57.2255
2023-04-17T03:36:12.685Z,57.2279
2023-04-17T03:37:15.296Z,57.2313
2023-04-17T03:38:17.861Z,57.2382
2023-04-17T03:39:20.854Z,57.2631
2023-04-17T03:40:23.030Z,57.2445
2023-04-17T03:41:25.637Z,57.2434
2023-04-17T03:42:28.203Z,57.2379
2023-04-17T03:43:30.804Z,57.2674
2023-04-17T03:44:33.358Z,57.2625
2023-04-17T03:45:36.233Z,57.2714
2023-04-17T03:46:38.527Z,57.2732
2023-04-17T03:47:41.167Z,57.2490
2023-04-17T03:48:43.703Z,57.2582
2023-04-17T03:49:46.310Z,57.2510
2023-04-17T03:50:48.898Z,57.2580
2023-04-17T03:51:51.477Z,57.2558
2023-04-17T03:52:54.035Z,57.2581
2023-04-17T03:53:56.642Z,57.2729
2023-04-17T03:54:59.201Z,57.2807
2023-04-17T03:56:01.814Z,57.2761
2023-04-17T03:57:04.382Z,57.2979
2023-04-17T03:58:06.992Z,57.2729
2023-04-17T03:59:09.785Z,57.2783
2023-04-17T04:00:12.161Z,57.2749
2023-04-17T04:01:14.793Z,57.2716
2023-04-17T04:02:17.435Z,57.2721
2023-04-17T04:03:20.042Z,57.2735
2023-04-17T04:04:22.827Z,57.2786
2023-04-17T04:05:25.402Z,57.2849
2023-04-17T04:06:27.664Z,57.2723
2023-04-17T04:07:30.269Z,57.2781
2023-04-17T04:08:32.835Z,57.2839
2023-04-17T04:09:35.396Z,57.2877
2023-04-17T04:10:37.999Z,57.2813
2023-04-17T04:11:40.554Z,57.2781
2023-04-17T04:12:43.165Z,57.3003
2023-04-17T04:13:45.722Z,57.2895
2023-04-17T04:14:48.326Z,57.2871
2023-04-17T04:15:50.900Z,57.2826
2023-04-17T04:16:53.496Z,57.2835
2023-04-17T04:17:56.109Z,57.2816
2023-04-17T04:18:58.676Z,57.2855
2023-04-17T04:20:01.269Z,57.2868
2023-04-17T04:21:03.838Z,57.3209
2023-04-17T04:22:06.959Z,57.3084
2023-04-17T04:23:08.989Z,57.2932
2023-04-17T04:24:11.552Z,57.3089
2023-04-17T04:25:14.169Z,57.3050
2023-04-17T04:26:16.713Z,57.2977
2023-04-17T04:27:19.322Z,57.3134
2023-04-17T04:28:21.883Z,57.3335
2023-04-17T04:29:24.493Z,57.3082
2023-04-17T04:30:27.060Z,57.3129
2023-04-17T04:31:29.843Z,57.3186
2023-04-17T04:32:32.298Z,57.3141
2023-04-17T04:33:35.898Z,57.3027
2023-04-17T04:34:37.380Z,57.3270
2023-04-17T04:35:40.007Z,57.3239
2023-04-17T04:36:42.553Z,57.3150
2023-04-17T04:37:45.164Z,57.3248
2023-04-17T04:38:47.726Z,57.3196
2023-04-17T04:39:50.325Z,57.3143
2023-04-17T04:40:52.944Z,57.3278
2023-04-17T04:41:55.502Z,57.3437
2023-04-17T04:42:58.073Z,57.3338
2023-04-17T04:44:00.669Z,57.3389
2023-04-17T04:45:03.239Z,57.3432
2023-04-17T04:46:05.831Z,57.3538
2023-04-17T04:47:08.546Z,57.3356
2023-04-17T04:48:10.995Z,57.3484
2023-04-17T04:49:13.621Z,57.3365
2023-04-17T04:50:17.388Z,57.3271
2023-04-17T04:51:18.755Z,57.3267
2023-04-17T04:52:21.340Z,57.3262
2023-04-17T04:53:24.123Z,57.3475
2023-04-17T04:54:26.514Z,57.3365
2023-04-17T04:55:29.062Z,57.3333
2023-04-17T04:56:33.040Z,57.3455
2023-04-17T04:57:34.229Z,57.3288
2023-04-17T04:58:36.841Z,57.3313
2023-04-17T04:59:39.402Z,57.3347
2023-04-17T05:00:42.052Z,57.3464
2023-04-17T05:01:44.866Z,57.3330
2023-04-17T05:02:47.278Z,57.3275
2023-04-17T05:03:49.874Z,57.3324
2023-04-17T05:04:52.367Z,57.3520
2023-04-17T05:05:54.903Z,57.3414
2023-04-17T05:06:57.612Z,57.3375
2023-04-17T05:08:00.070Z,57.3481
2023-04-17T05:09:02.650Z,57.3428
2023-04-17T05:10:05.285Z,57.3531
2023-04-17T05:11:07.819Z,57.3430
2023-04-17T05:12:10.508Z,57.3434
2023-04-17T05:13:13.084Z,57.3483
2023-04-17T05:14:15.731Z,57.3477
2023-04-17T05:15:18.247Z,57.3535
2023-04-17T05:16:20.882Z,57.3556
2023-04-17T05:17:23.432Z,57.3537
2023-04-17T05:18:26.015Z,57.3759
2023-04-17T05:19:28.564Z,57.3844
2023-04-17T05:20:31.184Z,57.3806
2023-04-17T05:21:33.735Z,57.3908
2023-04-17T05:22:36.339Z,57.3809
2023-04-17T05:23:38.891Z,57.3781
2023-04-17T05:24:41.507Z,57.4011
2023-04-17T05:25:44.064Z,57.3861
2023-04-17T05:26:46.668Z,57.3809
2023-04-17T05:27:49.281Z,57.3914
2023-04-17T05:28:51.828Z,57.3982
2023-04-17T05:29:54.385Z,57.4024
2023-04-17T05:30:56.989Z,57.4165
2023-04-17T05:31:59.604Z,57.4050
2023-04-17T05:33:02.222Z,57.4201
2023-04-17T05:34:04.868Z,57.4152
2023-04-17T05:35:07.344Z,57.4084
2023-04-17T05:36:09.893Z,57.4093
2023-04-17T05:37:12.484Z,57.4368
2023-04-17T05:38:15.045Z,57.4557
2023-04-17T05:39:17.665Z,57.4576
2023-04-17T05:40:20.210Z,57.4571
2023-04-17T05:41:22.822Z,57.4786
2023-04-17T05:42:25.379Z,57.4713
2023-04-17T05:43:28.005Z,57.4982
2023-04-17T05:44:30.548Z,57.5186
2023-04-17T05:45:33.329Z,57.5340
2023-04-17T05:46:35.717Z,57.5206
2023-04-17T05:47:38.515Z,57.5319
2023-04-17T05:48:40.876Z,57.5393
2023-04-17T05:49:43.496Z,57.5522
2023-04-17T05:50:46.058Z,57.5411
2023-04-17T05:51:48.672Z,57.5177
2023-04-17T05:52:51.236Z,57.5083
2023-04-17T05:53:53.851Z,57.5283
2023-04-17T05:54:56.389Z,57.5335
2023-04-17T05:55:58.995Z,57.5347
2023-04-17T05:57:01.555Z,57.5347
2023-04-17T05:58:16.862Z,57.5238
2023-04-17T05:59:07.753Z,57.5325
2023-04-17T06:00:09.336Z,57.5515
2023-04-17T06:01:11.914Z,57.5329
2023-04-17T06:02:14.587Z,57.5220
2023-04-17T06:03:18.162Z,57.5159
2023-04-17T06:04:19.987Z,57.5173
2023-04-17T06:05:22.327Z,57.5347
2023-04-17T06:06:24.846Z,57.5160
2023-04-17T06:07:27.401Z,57.4786
2023-04-17T06:08:30.016Z,57.4927
2023-04-17T06:09:32.581Z,57.5132
2023-04-17T06:10:35.198Z,57.5543
2023-04-17T06:11:37.748Z,57.5879
2023-04-17T06:12:40.361Z,57.6142
2023-04-17T06:13:42.966Z,57.6396
2023-04-17T06:14:45.525Z,57.6686
2023-04-17T06:15:48.077Z,57.6925
2023-04-17T06:16:50.850Z,57.7329
2023-04-17T06:17:53.319Z,57.7341
2023-04-17T06:18:55.860Z,57.7639
2023-04-17T06:19:58.414Z,57.7570
2023-04-17T06:21:01.051Z,57.7601
2023-04-17T06:22:03.584Z,57.7537
2023-04-17T06:23:06.196Z,57.7642
2023-04-17T06:24:08.764Z,57.7623
2023-04-17T06:25:11.915Z,57.7600
2023-04-17T06:26:13.929Z,57.7394
2023-04-17T06:27:16.533Z,57.7479
2023-04-17T06:28:19.099Z,57.7209
2023-04-17T06:29:21.734Z,57.6966
2023-04-17T06:30:24.256Z,57.6994
2023-04-17T06:31:26.888Z,57.6798
2023-04-17T06:32:29.484Z,57.6852
2023-04-17T06:33:32.062Z,57.6787
2023-04-17T06:34:34.604Z,57.6884
2023-04-17T06:35:37.206Z,57.6362
2023-04-17T06:36:39.792Z,57.6003
2023-04-17T06:37:42.576Z,57.5984
2023-04-17T06:38:44.933Z,57.5896
2023-04-17T06:39:47.535Z,57.5989
2023-04-17T06:40:52.131Z,57.6045
2023-04-17T06:41:52.703Z,57.5918
2023-04-17T06:42:55.308Z,57.5787
2023-04-17T06:43:57.865Z,57.6856
2023-04-17T06:45:00.434Z,57.8246
2023-04-17T06:46:03.054Z,57.7292
2023-04-17T06:47:05.593Z,57.7011
2023-04-17T06:48:08.201Z,57.6818
2023-04-17T06:49:11.038Z,57.6655
2023-04-17T06:50:13.387Z,57.6787
2023-04-17T06:51:15.917Z,57.6574
2023-04-17T06:52:18.525Z,57.6686
2023-04-17T06:53:21.086Z,57.6495
2023-04-17T06:54:23.700Z,57.6571
2023-04-17T06:55:26.277Z,57.7327
2023-04-17T06:56:28.893Z,57.7721
2023-04-17T06:57:31.412Z,57.8598
2023-04-17T06:58:34.030Z,57.8984
2023-04-17T06:59:36.575Z,57.9632
2023-04-17T07:00:39.200Z,57.9539
2023-04-17T07:01:41.826Z,57.9321
2023-04-17T07:02:44.433Z,57.9622
2023-04-17T07:03:47.082Z,57.9779
2023-04-17T07:04:49.784Z,57.9720
2023-04-17T07:05:52.084Z,57.9608
2023-04-17T07:06:54.684Z,57.9632
2023-04-17T07:07:57.237Z,57.9599
2023-04-17T07:09:00.120Z,57.9273
2023-04-17T07:10:02.413Z,57.9034
2023-04-17T07:11:05.048Z,57.9238
2023-04-17T07:12:07.589Z,57.9184
2023-04-17T07:13:10.192Z,57.9918
2023-04-17T07:14:12.973Z,57.9738
2023-04-17T07:15:15.523Z,57.9181
2023-04-17T07:16:17.981Z,57.9124
2023-04-17T07:17:20.613Z,57.8906
2023-04-17T07:18:23.095Z,57.8824
2023-04-17T07:19:25.703Z,57.8690
2023-04-17T07:20:28.283Z,57.8501
2023-04-17T07:21:30.872Z,57.8914
2023-04-17T07:22:33.434Z,57.8206
2023-04-17T07:23:36.035Z,57.7983
2023-04-17T07:24:38.603Z,57.7718
2023-04-17T07:25:41.235Z,57.7512
2023-04-17T07:26:44.040Z,57.7332
2023-04-17T07:27:46.382Z,57.7367
2023-04-17T07:28:48.942Z,57.8090
2023-04-17T07:29:51.564Z,57.9590
2023-04-17T07:30:54.107Z,58.0023
2023-04-17T07:31:56.928Z,57.9893
2023-04-17T07:32:59.534Z,58.0146
2023-04-17T07:34:01.925Z,58.0390
2023-04-17T07:35:04.494Z,58.0591
2023-04-17T07:36:07.072Z,58.1385
2023-04-17T07:37:09.632Z,58.1784
2023-04-17T07:38:12.254Z,58.2156
2023-04-17T07:39:14.855Z,58.2495
2023-04-17T07:40:17.410Z,58.2839
2023-04-17T07:41:19.971Z,58.2710
2023-04-17T07:42:22.661Z,58.3035
2023-04-17T07:43:25.206Z,58.3104
2023-04-17T07:44:27.766Z,58.3395
2023-04-17T07:45:30.334Z,58.3643
2023-04-17T07:46:33.005Z,58.3896
2023-04-17T07:47:35.557Z,58.3921
2023-04-17T07:48:38.117Z,58.4062
2023-04-17T07:49:40.675Z,58.4069
2023-04-17T07:50:43.276Z,58.4140
2023-04-17T07:51:45.830Z,58.4154
2023-04-17T07:52:48.453Z,58.4770
2023-04-17T07:53:51.031Z,58.4316
2023-04-17T07:54:53.628Z,58.4355
2023-04-17T07:55:56.228Z,58.4712
2023-04-17T07:56:58.856Z,58.4876
2023-04-17T07:58:01.345Z,58.4764
2023-04-17T07:59:03.958Z,58.4800
2023-04-17T08:00:06.511Z,58.4710
2023-04-17T08:01:09.126Z,58.5414
2023-04-17T08:02:11.800Z,58.4908
2023-04-17T08:03:14.504Z,58.5356
2023-04-17T08:04:17.338Z,58.5640
2023-04-17T08:05:19.531Z,58.5383
2023-04-17T08:06:22.023Z,58.5437
2023-04-17T08:07:24.668Z,58.5167
2023-04-17T08:08:27.202Z,58.5800
2023-04-17T08:09:29.815Z,58.6024
2023-04-17T08:10:32.372Z,58.5750
2023-04-17T08:11:40.095Z,58.5956
2023-04-17T08:12:38.823Z,58.5886
2023-04-17T08:13:40.150Z,58.5368
2023-04-17T08:14:42.709Z,58.5591
2023-04-17T08:15:45.329Z,58.5817
2023-04-17T08:16:47.952Z,58.5108
2023-04-17T08:17:50.526Z,58.5015
2023-04-17T08:18:53.055Z,58.5124
2023-04-17T08:19:55.692Z,58.5666
2023-04-17T08:20:58.217Z,58.5801
2023-04-17T08:22:00.837Z,58.6046
2023-04-17T08:23:03.402Z,58.5878
2023-04-17T08:24:06.003Z,58.6131
2023-04-17T08:25:08.557Z,58.5945
2023-04-17T08:26:11.167Z,58.6205
2023-04-17T08:27:13.730Z,58.6502
2023-04-17T08:28:16.379Z,58.6145
2023-04-17T08:29:18.951Z,58.6644
2023-04-17T08:30:21.496Z,58.6408
2023-04-17T08:31:24.177Z,58.7111
2023-04-17T08:32:26.674Z,58.7266
2023-04-17T08:33:29.224Z,58.7327
2023-04-17T08:34:31.987Z,58.8045
2023-04-17T08:35:34.389Z,58.8347
2023-04-17T08:36:37.001Z,58.8274
2023-04-17T08:37:39.569Z,58.8457
2023-04-17T08:38:42.208Z,58.7907
2023-04-17T08:39:44.730Z,58.7598
2023-04-17T08:40:47.357Z,58.7193
2023-04-17T08:41:49.893Z,58.6976
2023-04-17T08:42:52.505Z,58.6150
2023-04-17T08:43:55.078Z,58.5684
2023-04-17T08:44:57.666Z,58.5667
2023-04-17T08:46:00.604Z,58.5414
2023-04-17T08:47:02.840Z,58.5426
2023-04-17T08:48:05.424Z,58.5020
2023-04-17T08:49:08.015Z,58.4547
2023-04-17T08:50:10.595Z,58.4063
2023-04-17T08:51:13.178Z,58.3727
2023-04-17T08:52:15.746Z,58.3291
2023-04-17T08:53:18.341Z,58.2784
2023-04-17T08:54:20.897Z,58.2194
2023-04-17T08:55:23.522Z,58.2002
2023-04-17T08:56:26.076Z,58.1647
2023-04-17T08:57:28.675Z,58.1576
2023-04-17T08:58:31.236Z,58.1572
2023-04-17T08:59:33.867Z,58.1743
2023-04-17T09:00:36.435Z,58.1700
2023-04-17T09:01:39.089Z,58.1545
2023-04-17T09:02:41.716Z,58.2532
2023-04-17T09:03:44.338Z,58.2534
2023-04-17T09:04:46.859Z,58.1996
2023-04-17T09:05:49.359Z,58.1962
2023-04-17T09:06:52.025Z,58.1866
2023-04-17T09:07:54.528Z,58.1641
2023-04-17T09:08:57.086Z,58.1800
2023-04-17T09:09:59.708Z,58.2001
2023-04-17T09:11:02.276Z,58.1749
2023-04-17T09:12:04.890Z,58.1858
2023-04-17T09:13:07.474Z,58.2174
2023-04-17T09:14:10.037Z,58.2601
2023-04-17T09:15:12.603Z,58.2987
2023-04-17T09:16:15.281Z,58.3043
2023-04-17T09:17:17.770Z,58.3088
2023-04-17T09:18:20.451Z,58.3090
2023-04-17T09:19:23.133Z,58.3121
2023-04-17T09:20:25.772Z,58.3129
2023-04-17T09:21:28.174Z,58.3281
2023-04-17T09:22:30.792Z,58.3944
2023-04-17T09:23:33.352Z,58.4410
2023-04-17T09:24:36.316Z,58.4671
2023-04-17T09:25:38.514Z,58.4578
2023-04-17T09:26:41.135Z,58.4450
2023-04-17T09:27:43.682Z,58.4251
2023-04-17T09:28:46.303Z,58.4170
2023-04-17T09:29:48.854Z,58.4492
2023-04-17T09:30:51.466Z,58.4234
2023-04-17T09:31:54.095Z,58.4111
2023-04-17T09:32:56.785Z,58.4424
2023-04-17T09:33:59.216Z,58.3923
2023-04-17T09:35:01.825Z,58.3904
2023-04-17T09:36:04.401Z,58.4000
2023-04-17T09:37:07.969Z,58.4157
2023-04-17T09:38:09.559Z,58.4165
2023-04-17T09:39:12.242Z,58.4139
2023-04-17T09:40:14.723Z,58.4163
2023-04-17T09:41:17.407Z,58.4204
2023-04-17T09:42:19.914Z,58.4171
2023-04-17T09:43:22.442Z,58.4412
2023-04-17T09:44:25.057Z,58.4528
2023-04-17T09:45:48.604Z,58.4588
2023-04-17T09:46:30.250Z,58.5012
2023-04-17T09:47:32.838Z,58.5436
2023-04-17T09:48:35.368Z,58.5495
2023-04-17T09:49:38.198Z,58.5359
2023-04-17T09:50:40.527Z,58.5057
2023-04-17T09:51:43.155Z,58.5000
2023-04-17T09:52:45.713Z,58.4885
2023-04-17T09:53:48.363Z,58.4778
2023-04-17T09:54:50.849Z,58.4426
2023-04-17T09:55:53.467Z,58.4346
2023-04-17T09:56:56.213Z,58.4014
2023-04-17T09:57:58.625Z,58.4220
2023-04-17T09:59:01.193Z,58.4116
2023-04-17T10:00:03.786Z,58.3939
2023-04-17T10:01:06.401Z,58.4011
2023-04-17T10:02:09.092Z,58.4064
2023-04-17T10:03:11.760Z,58.4195
2023-04-17T10:04:14.440Z,58.4668
2023-04-17T10:05:16.672Z,58.5101
2023-04-17T10:06:19.306Z,58.6146
2023-04-17T10:07:21.842Z,58.5963
2023-04-17T10:08:24.451Z,58.6672
2023-04-17T10:09:27.043Z,58.6423
2023-04-17T10:10:29.670Z,58.6753
2023-04-17T10:11:32.196Z,58.7630
2023-04-17T10:12:35.113Z,58.8278
2023-04-17T10:13:37.337Z,58.8212
2023-04-17T10:14:39.953Z,58.8979
2023-04-17T10:15:42.500Z,58.0891
2023-04-17T10:16:45.327Z,55.5498
2023-04-17T10:17:47.677Z,54.4824
2023-04-17T10:18:50.293Z,54.3043
2023-04-17T10:19:52.852Z,56.0267
2023-04-17T10:20:55.534Z,57.4260
2023-04-17T10:21:58.006Z,57.5813
2023-04-17T10:23:00.617Z,57.4909
2023-04-17T10:24:03.174Z,57.5286
2023-04-17T10:25:05.768Z,57.4933
2023-04-17T10:26:08.335Z,57.4853
2023-04-17T10:27:10.958Z,57.3222
2023-04-17T10:28:13.507Z,57.2482
2023-04-17T10:29:16.109Z,57.3212
2023-04-17T10:31:21.311Z,57.5563
2023-04-17T10:32:23.818Z,57.5865
2023-04-17T10:33:26.470Z,57.6007
2023-04-17T10:34:29.045Z,57.6009
2023-04-17T10:35:31.603Z,57.5928
2023-04-17T10:36:34.156Z,57.6318
2023-04-17T10:37:36.764Z,57.5817
2023-04-17T10:38:39.319Z,57.5764
2023-04-17T10:39:41.928Z,57.5359
2023-04-17T10:40:44.548Z,57.5039
2023-04-17T10:41:47.106Z,57.4789
2023-04-17T10:42:49.661Z,57.4377
2023-04-17T10:43:52.290Z,57.4978
2023-04-17T10:44:54.845Z,57.4829
2023-04-17T10:45:57.531Z,57.4713
2023-04-17T10:46:59.993Z,57.4815
2023-04-17T10:48:02.697Z,57.4539
2023-04-17T10:49:05.185Z,57.4632
2023-04-17T10:50:07.790Z,57.4979
2023-04-17T10:51:10.355Z,57.4861
2023-04-17T10:52:12.944Z,57.4982
2023-04-17T10:53:15.504Z,57.5041
2023-04-17T10:54:18.114Z,57.5335
2023-04-17T10:55:20.686Z,57.5682
2023-04-17T10:56:23.285Z,57.5888
2023-04-17T10:57:26.176Z,57.5845
2023-04-17T10:58:31.616Z,57.6197
2023-04-17T10:59:31.010Z,57.5986
2023-04-17T11:00:33.628Z,57.5836
2023-04-17T11:01:36.197Z,57.5328
2023-04-17T11:02:38.841Z,56.3027
2023-04-17T11:03:41.375Z,53.8451
2023-04-17T11:04:43.979Z,53.8540
2023-04-17T11:05:46.524Z,55.6265
2023-04-17T11:06:49.136Z,56.7159
2023-04-17T11:07:51.676Z,56.7882
2023-04-17T11:08:55.615Z,56.7553
2023-04-17T11:09:56.824Z,56.7065
2023-04-17T11:10:59.461Z,56.5869
2023-04-17T11:12:02.383Z,56.5217
2023-04-17T11:13:04.606Z,56.4575
2023-04-17T11:14:07.152Z,56.4207
2023-04-17T11:15:09.818Z,56.3701
2023-04-17T11:16:12.318Z,56.3438
2023-04-17T11:17:14.954Z,56.3358
